Antilla — PJJI — position and weather

sailwx.info

Track history (hours):
 
Tides and Currents Weather Stations Pressure Air Temp Water Temp Dewpoint Dewpoint Depression Visibility Wind Speed Wind Dir Waves Ship Positions

Antilla

Last reported at 2015-May-02 11:20 UTC. Time now 2015-May-27 19:59 UTC.
Position N 32°58' W 009°53'.
Warning: this ship's position is 25 days out of date.

Length 105 m; beam 16 m.

Type: Cargo ship. MMSI: 306511000.

Date/timePositionNaut miles runAvg speedWind from/ knotsBaromVisibWave heightAir tempDewpointWater temp
2015-May-02 11:20N 32°58' W 009°53'1814.6
2015-May-02 10:07N 33°13' W 009°41'4014.2
2015-May-02 07:18N 33°40' W 009°06'5614.1
2015-May-02 03:18N 34°17' W 008°14'16413.9
2015-May-01 15:27N 35°57' W 005°35'1011.0
2015-May-01 14:33N 36°02' W 005°25'8 7.9
2015-May-01 13:33N 36°10' W 005°26'0 0.0
2015-May-01 12:26N 36°10' W 005°26'0 0.0
2015-May-01 11:32N 36°10' W 005°26'0 0.1
2015-May-01 10:28N 36°10' W 005°26'0 0.0
2015-May-01 08:33N 36°10' W 005°26'0 0.0
2015-May-01 06:17N 36°10' W 005°26'5 2.8
2015-May-01 04:33N 36°05' W 005°23'11 9.0
2015-May-01 03:18N 36°06' W 005°09'115 8.8
2015-Apr-30 14:19N 36°22' W 002°48'1012.3
2015-Apr-30 13:32N 36°23' W 002°36'1212.6
2015-Apr-30 12:33N 36°25' W 002°21'1513.2
2015-Apr-30 11:27N 36°28' W 002°03'10112.6
2015-Apr-30 03:25N 36°50' E 000°01'1011.8
2015-Apr-30 02:32N 36°52' E 000°13'1212.4
2015-Apr-30 01:33N 36°55' E 000°28'1412.0
2015-Apr-30 00:24N 36°58' E 000°45'1012.0
2015-Apr-29 23:33N 36°60' E 000°57'1212.2
2015-Apr-29 22:33N 37°02' E 001°12'1312.5
2015-Apr-29 21:33N 37°04' E 001°28'2712.6
2015-Apr-29 19:23N 37°07' E 002°02'1012.0
2015-Apr-29 18:33N 37°08' E 002°14'3511.9
2015-Apr-29 15:33N 37°10' E 002°59'1511.9
2015-Apr-29 14:16N 37°11' E 003°18'912.1
2015-Apr-29 13:33N 37°12' E 003°29'50411.2
2015-Apr-27 16:27N 36°34' E 013°57'1213.2
2015-Apr-27 15:33N 36°30' E 014°11'1413.5
2015-Apr-27 14:33N 36°25' E 014°27'1313.2
2015-Apr-27 13:34N 36°22' E 014°43'43312.0
2015-Apr-26 01:32N 37°21' E 023°39'1313.6
2015-Apr-26 00:33N 37°34' E 023°41'1312.7
2015-Apr-25 23:34N 37°47' E 023°38'8 8.0
2015-Apr-25 22:31N 37°54' E 023°33'0 0.0
2015-Apr-25 21:33N 37°54' E 023°33'0 0.0
2015-Apr-25 20:33N 37°54' E 023°33'0 0.0
2015-Apr-25 19:33N 37°54' E 023°33'0 0.0
2015-Apr-25 18:32N 37°54' E 023°33'0 0.0
2015-Apr-25 17:32N 37°54' E 023°33'0 0.0
2015-Apr-25 16:31N 37°54' E 023°33'0 0.0
2015-Apr-25 15:31N 37°54' E 023°33'0 0.0
2015-Apr-25 14:33N 37°54' E 023°33'1 1.2
2015-Apr-25 13:33N 37°54' E 023°34'1010.0
2015-Apr-25 12:33N 37°46' E 023°42'1212.2
2015-Apr-25 11:33N 37°38' E 023°54'  
Track history (hours):
 
Tides and Currents Weather Stations Pressure Air Temp Water Temp Dewpoint Dewpoint Depression Visibility Wind Speed Wind Dir Waves Ship Positions

Antilla

Last reported at 2015-May-02 11:20 UTC. Time now 2015-May-27 19:59 UTC.
Position N 32°58' W 009°53'.
Warning: this ship's position is 25 days out of date.

Length 105 m; beam 16 m.

Type: Cargo ship. MMSI: 306511000.

Date/timePositionNaut miles runAvg speedWind from/ knotsBaromVisibWave heightAir tempDewpointWater temp
2015-May-02 11:20N 32°58' W 009°53'1814.6
2015-May-02 10:07N 33°13' W 009°41'4014.2
2015-May-02 07:18N 33°40' W 009°06'5614.1
2015-May-02 03:18N 34°17' W 008°14'16413.9
2015-May-01 15:27N 35°57' W 005°35'1011.0
2015-May-01 14:33N 36°02' W 005°25'8 7.9
2015-May-01 13:33N 36°10' W 005°26'0 0.0
2015-May-01 12:26N 36°10' W 005°26'0 0.0
2015-May-01 11:32N 36°10' W 005°26'0 0.1
2015-May-01 10:28N 36°10' W 005°26'0 0.0
2015-May-01 08:33N 36°10' W 005°26'0 0.0
2015-May-01 06:17N 36°10' W 005°26'5 2.8
2015-May-01 04:33N 36°05' W 005°23'11 9.0
2015-May-01 03:18N 36°06' W 005°09'115 8.8
2015-Apr-30 14:19N 36°22' W 002°48'1012.3
2015-Apr-30 13:32N 36°23' W 002°36'1212.6
2015-Apr-30 12:33N 36°25' W 002°21'1513.2
2015-Apr-30 11:27N 36°28' W 002°03'10112.6
2015-Apr-30 03:25N 36°50' E 000°01'1011.8
2015-Apr-30 02:32N 36°52' E 000°13'1212.4
2015-Apr-30 01:33N 36°55' E 000°28'1412.0
2015-Apr-30 00:24N 36°58' E 000°45'1012.0
2015-Apr-29 23:33N 36°60' E 000°57'1212.2
2015-Apr-29 22:33N 37°02' E 001°12'1312.5
2015-Apr-29 21:33N 37°04' E 001°28'2712.6
2015-Apr-29 19:23N 37°07' E 002°02'1012.0
2015-Apr-29 18:33N 37°08' E 002°14'3511.9
2015-Apr-29 15:33N 37°10' E 002°59'1511.9
2015-Apr-29 14:16N 37°11' E 003°18'912.1
2015-Apr-29 13:33N 37°12' E 003°29'50411.2
2015-Apr-27 16:27N 36°34' E 013°57'1213.2
2015-Apr-27 15:33N 36°30' E 014°11'1413.5
2015-Apr-27 14:33N 36°25' E 014°27'1313.2
2015-Apr-27 13:34N 36°22' E 014°43'43312.0
2015-Apr-26 01:32N 37°21' E 023°39'1313.6
2015-Apr-26 00:33N 37°34' E 023°41'1312.7
2015-Apr-25 23:34N 37°47' E 023°38'8 8.0
2015-Apr-25 22:31N 37°54' E 023°33'0 0.0
2015-Apr-25 21:33N 37°54' E 023°33'0 0.0
2015-Apr-25 20:33N 37°54' E 023°33'0 0.0
2015-Apr-25 19:33N 37°54' E 023°33'0 0.0
2015-Apr-25 18:32N 37°54' E 023°33'0 0.0
2015-Apr-25 17:32N 37°54' E 023°33'0 0.0
2015-Apr-25 16:31N 37°54' E 023°33'0 0.0
2015-Apr-25 15:31N 37°54' E 023°33'0 0.0
2015-Apr-25 14:33N 37°54' E 023°33'1 1.2
2015-Apr-25 13:33N 37°54' E 023°34'1010.0
2015-Apr-25 12:33N 37°46' E 023°42'1212.2
2015-Apr-25 11:33N 37°38' E 023°54'  

Dump ship's entire track history